Belfast, United Kingdom
Current Conditions -  °F | °C
As of 9:20 PM on Monday 22 Dec 2014 (Local Time) from EGAC Reporting Station
Drizzle Drizzle  
Wind Chill: 50°   Ceiling: Unl
Heat Index: 50°   Visibility: 6mi
Dew Point: 48°   Wind: 6mph
Humidity: 94%   Direction: 190°S
Pressure: 29.74"   Gusts: NA
Location:  54.6°N, 5.94°W
Report Text: EGAC 222120Z 19005KT 9999 -DZ FEW011 SCT030 10/09 Q1007
Loading
Personal Weather Stations






























Interactive Weather Map New forecast layout! Learn more

10-Day Weather Forecast

Advertisements
Track Severe Weather on mobile